Time;durP1;ratioP1;P1;durP2;ratioP2;P2;SDS_P1;SDS_P2;PMS_P1;PMS_P2;Temp;Humidity;BMP_temperature;BMP_pressure;BME280_temperature;BME280_humidity;BME280_pressure;Samples;Min_cycle;Max_cycle;Signal;HPM_P1;HPM_P2
2022/03/27 00:00:15;;;;;;;6.53;3.08;;;6.40;99.90;;;;;;5134024;27;20051;-78
2022/03/27 00:02:42;;;;;;;6.18;3.17;;;6.40;99.90;;;;;;5134104;27;20053;-78
2022/03/27 00:05:10;;;;;;;7.65;3.50;;;6.50;99.90;;;;;;5115446;27;20047;-77
2022/03/27 00:07:36;;;;;;;7.50;3.33;;;6.50;99.90;;;;;;5114383;27;20066;-79
2022/03/27 00:10:05;;;;;;;8.57;3.70;;;6.50;99.90;;;;;;5134391;27;20046;-78
2022/03/27 00:12:31;;;;;;;9.57;4.38;;;6.50;99.90;;;;;;5098848;27;20446;-77
2022/03/27 00:14:57;;;;;;;9.05;4.00;;;6.50;99.90;;;;;;5134271;27;20122;-77
2022/03/27 00:17:23;;;;;;;11.85;3.88;;;6.50;99.90;;;;;;5125287;27;20384;-78
2022/03/27 00:19:49;;;;;;;11.52;4.28;;;6.50;99.90;;;;;;5113058;27;20047;-77
2022/03/27 00:22:15;;;;;;;7.55;3.92;;;6.50;99.90;;;;;;5112679;28;20044;-75
2022/03/27 00:24:41;;;;;;;11.40;4.03;;;6.50;99.90;;;;;;5113215;28;20035;-74
2022/03/27 00:27:07;;;;;;;9.63;3.88;;;6.60;99.90;;;;;;5112021;27;20069;-75
2022/03/27 00:29:33;;;;;;;7.22;3.50;;;7.00;99.90;;;;;;5094863;28;20051;-77
2022/03/27 00:31:59;;;;;;;14.25;4.57;;;6.60;99.90;;;;;;5077951;28;20044;-77
2022/03/27 00:34:25;;;;;;;7.90;4.15;;;6.60;99.90;;;;;;5112876;28;20497;-75
2022/03/27 00:36:51;;;;;;;11.77;4.68;;;6.60;99.90;;;;;;5112641;28;20089;-77
2022/03/27 00:39:17;;;;;;;11.20;4.30;;;6.70;99.90;;;;;;5113417;27;20397;-77
2022/03/27 00:41:45;;;;;;;17.50;4.80;;;6.60;99.90;;;;;;5112828;28;20039;-77
2022/03/27 00:44:11;;;;;;;10.07;4.45;;;6.60;99.90;;;;;;5112882;28;20075;-79
2022/03/27 00:46:37;;;;;;;11.95;5.13;;;6.60;99.90;;;;;;5113949;27;20086;-77
2022/03/27 00:49:03;;;;;;;9.07;4.88;;;6.70;99.90;;;;;;5112653;28;20036;-78
2022/03/27 00:51:29;;;;;;;12.25;5.07;;;6.60;99.90;;;;;;5112474;28;20047;-74
2022/03/27 00:53:54;;;;;;;11.10;5.13;;;6.60;99.90;;;;;;5110816;28;20104;-74
2022/03/27 00:56:20;;;;;;;12.93;5.78;;;6.70;99.90;;;;;;5113642;27;20047;-76
2022/03/27 00:58:45;;;;;;;14.18;5.32;;;6.70;99.90;;;;;;5112348;28;20043;-75
2022/03/27 01:01:25;;;;;;;16.08;5.65;;;6.70;99.90;;;;;;5110881;28;20069;-75
2022/03/27 01:03:54;;;;;;;20.17;5.30;;;6.70;99.90;;;;;;5112239;27;20047;-79
2022/03/27 01:06:31;;;;;;;21.65;5.72;;;6.70;99.90;;;;;;5113098;27;20047;-75
2022/03/27 01:11:41;;;;;;;16.13;5.78;;;6.70;99.90;;;;;;5093585;28;20047;-79
2022/03/27 01:14:09;;;;;;;20.38;5.65;;;6.70;99.90;;;;;;5094858;28;20058;-76
2022/03/27 01:16:55;;;;;;;12.60;5.47;;;6.70;99.90;;;;;;5112008;28;20097;-78
2022/03/27 01:19:21;;;;;;;13.85;5.82;;;6.70;99.90;;;;;;5093698;28;20436;-75
2022/03/27 01:21:47;;;;;;;17.60;5.95;;;6.70;99.90;;;;;;5093482;28;20051;-78
2022/03/27 01:24:15;;;;;;;11.63;5.55;;;7.60;99.90;;;;;;5112383;27;20486;-74
2022/03/27 01:26:41;;;;;;;14.45;5.43;;;6.80;99.90;;;;;;5111653;28;20455;-79
2022/03/27 01:29:08;;;;;;;16.02;4.82;;;6.80;99.90;;;;;;5111585;28;20044;-78
2022/03/27 01:31:34;;;;;;;12.32;5.68;;;6.80;99.90;;;;;;5111575;27;20074;-77
2022/03/27 01:34:00;;;;;;;11.23;5.47;;;6.70;99.90;;;;;;5111652;28;20050;-76
2022/03/27 01:36:36;;;;;;;12.68;5.13;;;6.70;99.90;;;;;;5112842;27;20043;-77
2022/03/27 01:39:07;;;;;;;9.15;4.72;;;6.70;99.90;;;;;;5111730;28;20098;-76
2022/03/27 01:41:33;;;;;;;10.15;5.05;;;6.70;99.90;;;;;;5111275;28;20547;-77
2022/03/27 01:44:00;;;;;;;13.63;5.45;;;6.70;99.90;;;;;;5110347;28;20048;-75
2022/03/27 01:46:33;;;;;;;14.90;5.07;;;6.70;99.90;;;;;;5112513;27;20394;-75
2022/03/27 01:49:03;;;;;;;26.52;6.20;;;6.70;99.90;;;;;;5111760;28;20075;-76
2022/03/27 01:51:30;;;;;;;13.98;5.13;;;6.70;99.90;;;;;;5110167;28;20086;-75
2022/03/27 01:53:56;;;;;;;14.02;5.28;;;6.70;99.90;;;;;;5112415;27;20051;-73
2022/03/27 01:56:22;;;;;;;12.43;5.05;;;6.70;99.90;;;;;;5111047;28;20138;-76
2022/03/27 01:58:48;;;;;;;15.48;6.70;;;6.70;99.90;;;;;;5111213;28;20324;-77
2022/03/27 02:01:15;;;;;;;14.45;5.15;;;6.70;99.90;;;;;;5106998;27;20052;-75
2022/03/27 02:03:41;;;;;;;18.23;6.18;;;6.90;99.90;;;;;;5103974;27;20051;-74
2022/03/27 02:06:06;;;;;;;19.48;5.82;;;6.60;99.90;;;;;;5131549;27;20050;-77
2022/03/27 02:08:35;;;;;;;13.43;4.68;;;6.60;99.90;;;;;;5131522;27;20047;-76
2022/03/27 02:11:02;;;;;;;12.10;5.13;;;6.60;99.90;;;;;;5112468;28;20402;-74
2022/03/27 02:13:28;;;;;;;16.27;5.95;;;6.60;99.90;;;;;;5128563;27;20039;-76
2022/03/27 02:15:57;;;;;;;16.92;5.45;;;6.60;99.90;;;;;;5097792;27;20137;-75
2022/03/27 02:18:28;;;;;;;13.27;6.00;;;6.60;99.90;;;;;;5112935;27;20050;-76
2022/03/27 02:20:54;;;;;;;14.77;5.75;;;6.60;99.90;;;;;;5129813;27;20425;-78
2022/03/27 02:23:24;;;;;;;12.35;5.30;;;6.60;99.90;;;;;;5131264;27;20095;-81
2022/03/27 02:25:50;;;;;;;13.27;5.47;;;6.60;99.90;;;;;;5112347;27;20049;-80
2022/03/27 02:28:16;;;;;;;13.65;5.65;;;6.60;99.90;;;;;;5127211;27;20482;-78
2022/03/27 02:30:42;;;;;;;11.65;5.65;;;6.60;99.90;;;;;;5126675;27;20042;-77
2022/03/27 02:33:09;;;;;;;18.70;5.45;;;6.70;99.90;;;;;;5112740;27;20047;-75
2022/03/27 02:35:34;;;;;;;17.77;6.10;;;6.70;99.90;;;;;;5092460;28;20059;-75
2022/03/27 02:38:04;;;;;;;14.90;6.40;;;6.60;99.90;;;;;;5112947;27;20489;-77
2022/03/27 02:40:34;;;;;;;16.60;6.53;;;6.70;99.90;;;;;;5095909;28;20075;-78
2022/03/27 02:42:59;;;;;;;16.77;6.68;;;6.60;99.90;;;;;;5111112;27;20421;-77
2022/03/27 02:45:26;;;;;;;14.77;6.22;;;6.60;99.90;;;;;;5116240;27;20039;-78
2022/03/27 02:47:53;;;;;;;13.20;5.97;;;6.60;99.90;;;;;;5112178;27;20576;-74
2022/03/27 02:50:19;;;;;;;12.35;6.30;;;6.70;99.90;;;;;;5112168;27;20058;-76
2022/03/27 02:52:45;;;;;;;14.80;6.68;;;6.70;99.90;;;;;;5106738;28;20471;-74
2022/03/27 02:55:11;;;;;;;16.63;6.50;;;6.60;99.90;;;;;;5092110;28;20048;-75
2022/03/27 02:57:37;;;;;;;16.13;6.55;;;6.60;99.90;;;;;;5109787;28;20116;-76
2022/03/27 03:00:05;;;;;;;16.15;5.97;;;6.60;99.90;;;;;;5110124;28;20043;-76
2022/03/27 03:02:31;;;;;;;16.90;6.25;;;6.80;99.90;;;;;;5121482;27;20055;-77
2022/03/27 03:04:57;;;;;;;20.80;5.97;;;6.60;99.90;;;;;;5130426;27;20047;-78
2022/03/27 03:07:22;;;;;;;15.95;6.35;;;6.60;99.90;;;;;;5130431;27;20059;-75
2022/03/27 03:09:48;;;;;;;14.02;6.55;;;6.60;99.90;;;;;;5130768;27;20055;-73
2022/03/27 03:12:14;;;;;;;20.25;6.10;;;6.60;99.90;;;;;;5128869;28;20035;-74
2022/03/27 03:14:39;;;;;;;13.05;5.97;;;6.60;99.90;;;;;;5118303;28;20039;-76
2022/03/27 03:17:07;;;;;;;15.93;5.90;;;6.60;99.90;;;;;;5111888;28;20082;-73
2022/03/27 03:19:33;;;;;;;16.50;6.38;;;6.60;99.90;;;;;;5130701;28;20178;-76
2022/03/27 03:21:59;;;;;;;18.25;5.60;;;6.60;99.90;;;;;;5130557;27;20047;-78
2022/03/27 03:24:25;;;;;;;13.82;5.57;;;6.50;99.90;;;;;;5134471;27;20043;-78
2022/03/27 03:26:52;;;;;;;16.42;5.10;;;6.50;99.90;;;;;;5124230;27;20047;-78
2022/03/27 03:29:18;;;;;;;12.65;5.32;;;6.50;99.90;;;;;;5095416;28;20248;-76
2022/03/27 03:31:44;;;;;;;13.57;5.00;;;6.50;99.90;;;;;;5131654;27;20058;-76
2022/03/27 03:34:09;;;;;;;14.23;5.03;;;6.40;99.90;;;;;;5134030;27;20122;-75
2022/03/27 03:36:35;;;;;;;16.58;5.25;;;6.30;99.90;;;;;;5133440;27;20123;-76
2022/03/27 03:39:01;;;;;;;9.23;4.65;;;6.30;99.90;;;;;;5134429;27;20130;-78
2022/03/27 03:41:27;;;;;;;14.50;5.20;;;6.20;99.90;;;;;;5127635;27;20432;-78
2022/03/27 03:43:52;;;;;;;16.98;5.00;;;6.20;99.90;;;;;;5133806;27;20080;-76
2022/03/27 03:46:18;;;;;;;14.27;4.65;;;6.20;99.90;;;;;;5134177;27;20393;-75
2022/03/27 03:48:44;;;;;;;14.80;5.00;;;6.10;99.90;;;;;;5134185;27;20141;-76
2022/03/27 03:51:09;;;;;;;14.55;4.80;;;6.00;99.90;;;;;;5132507;27;20087;-80
2022/03/27 03:53:35;;;;;;;11.00;4.68;;;6.00;99.90;;;;;;5133742;27;20140;-76
2022/03/27 03:56:01;;;;;;;13.90;4.82;;;5.90;99.90;;;;;;5134307;27;20047;-78
2022/03/27 03:58:26;;;;;;;13.10;4.82;;;5.80;99.90;;;;;;5114726;27;20043;-77
2022/03/27 04:00:52;;;;;;;12.13;4.80;;;5.80;99.90;;;;;;5105684;28;20067;-77
2022/03/27 04:03:17;;;;;;;13.60;4.50;;;5.70;99.90;;;;;;5113407;27;20056;-76
2022/03/27 04:05:43;;;;;;;11.13;4.10;;;5.60;99.90;;;;;;5113601;28;20399;-79
2022/03/27 04:08:09;;;;;;;11.73;3.92;;;5.50;99.90;;;;;;5105616;28;20047;-77
2022/03/27 04:10:35;;;;;;;10.55;4.65;;;5.50;99.90;;;;;;5114190;27;20436;-76
2022/03/27 04:13:00;;;;;;;8.25;4.30;;;5.40;99.90;;;;;;5113096;27;20470;-78
2022/03/27 04:15:26;;;;;;;9.35;3.88;;;5.40;99.90;;;;;;5111686;28;20407;-79
2022/03/27 04:17:51;;;;;;;10.90;3.95;;;5.30;99.90;;;;;;5122924;27;20059;-77
2022/03/27 04:20:18;;;;;;;8.77;5.15;;;5.30;99.90;;;;;;5119024;27;20052;-74
2022/03/27 04:22:45;;;;;;;10.10;4.28;;;5.10;99.90;;;;;;5124528;27;20542;-77
2022/03/27 04:25:12;;;;;;;11.80;3.53;;;5.10;99.90;;;;;;5133313;27;20043;-76
2022/03/27 04:27:38;;;;;;;7.55;3.15;;;5.00;99.90;;;;;;5133225;27;20098;-77
2022/03/27 04:30:08;;;;;;;7.05;3.35;;;5.10;99.90;;;;;;5131315;27;20572;-75
2022/03/27 04:32:34;;;;;;;11.35;3.58;;;4.90;99.90;;;;;;5130031;27;20047;-78
2022/03/27 04:35:00;;;;;;;10.65;4.03;;;4.90;99.90;;;;;;5132433;27;20054;-77
2022/03/27 04:37:26;;;;;;;21.50;3.83;;;4.80;99.90;;;;;;5133292;27;20038;-78
2022/03/27 04:39:51;;;;;;;6.63;2.90;;;4.70;99.90;;;;;;5131807;27;20432;-76
2022/03/27 04:42:17;;;;;;;8.65;2.20;;;4.60;99.90;;;;;;5132214;27;20042;-76
2022/03/27 04:44:43;;;;;;;5.07;2.00;;;4.50;99.90;;;;;;5114341;27;20126;-77
2022/03/27 04:47:09;;;;;;;5.47;2.30;;;4.50;99.90;;;;;;5112858;27;20129;-74
2022/03/27 04:49:34;;;;;;;5.97;2.65;;;5.00;99.90;;;;;;5133376;27;20050;-75
2022/03/27 04:52:00;;;;;;;7.05;2.97;;;4.40;99.90;;;;;;5133348;27;20106;-79
2022/03/27 04:54:26;;;;;;;37.35;4.15;;;4.40;99.90;;;;;;5130013;27;20055;-78
2022/03/27 04:56:51;;;;;;;5.43;2.85;;;4.30;99.90;;;;;;5132480;27;20043;-76
2022/03/27 04:59:17;;;;;;;12.40;3.20;;;4.30;99.90;;;;;;5110908;28;20052;-77
2022/03/27 05:01:43;;;;;;;26.77;3.30;;;4.20;99.90;;;;;;5112266;28;20484;-78
2022/03/27 05:04:09;;;;;;;5.82;2.17;;;4.40;99.90;;;;;;5110300;28;20035;-74
2022/03/27 05:06:35;;;;;;;22.55;4.20;;;4.10;99.90;;;;;;5110722;28;20056;-75
2022/03/27 05:09:01;;;;;;;17.05;3.65;;;4.10;99.90;;;;;;5111575;27;20055;-78
2022/03/27 05:11:30;;;;;;;178.75;7.07;;;4.00;99.90;;;;;;5112112;28;20495;-77
2022/03/27 05:13:56;;;;;;;26.50;3.13;;;3.90;99.90;;;;;;5115990;27;20040;-79
2022/03/27 05:16:22;;;;;;;32.70;3.35;;;4.80;99.90;;;;;;5110352;28;20048;-78
2022/03/27 05:18:48;;;;;;;287.00;9.23;;;3.80;99.90;;;;;;5121607;27;20444;-77
2022/03/27 05:21:15;;;;;;;92.80;4.80;;;3.70;99.90;;;;;;5130235;27;20078;-75
2022/03/27 05:23:41;;;;;;;15.20;3.03;;;3.70;99.90;;;;;;5130894;27;20053;-76
2022/03/27 05:26:08;;;;;;;8.98;3.15;;;3.60;99.90;;;;;;5130815;27;20055;-79
2022/03/27 05:28:34;;;;;;;118.53;6.30;;;3.60;99.90;;;;;;5124664;27;20058;-75
2022/03/27 05:31:02;;;;;;;6.13;3.53;;;3.60;99.90;;;;;;5113045;27;20062;-76
2022/03/27 05:33:28;;;;;;;21.77;4.43;;;3.60;99.90;;;;;;5111512;28;20105;-79
2022/03/27 05:35:54;;;;;;;24.25;5.00;;;3.50;99.90;;;;;;5110371;28;20040;-75
2022/03/27 05:38:19;;;;;;;9.13;2.63;;;3.50;99.90;;;;;;5111578;28;20118;-75
2022/03/27 05:40:46;;;;;;;114.70;4.93;;;4.30;99.90;;;;;;5111424;27;20048;-73
2022/03/27 05:43:11;;;;;;;18.42;3.25;;;3.40;99.90;;;;;;5109846;27;20054;-76
2022/03/27 05:45:37;;;;;;;10.95;2.67;;;3.40;99.90;;;;;;5109501;28;20063;-79
2022/03/27 05:48:03;;;;;;;95.43;4.82;;;3.50;99.90;;;;;;5110822;27;20102;-72
2022/03/27 05:50:29;;;;;;;11.73;2.30;;;3.40;99.90;;;;;;5112020;27;20036;-73
2022/03/27 05:52:55;;;;;;;4.00;1.85;;;3.40;99.90;;;;;;5111729;28;20051;-75
2022/03/27 05:55:22;;;;;;;7.90;1.85;;;3.40;99.90;;;;;;5109869;28;20052;-76
2022/03/27 05:57:48;;;;;;;61.20;3.63;;;3.40;99.90;;;;;;5116334;27;20476;-76
2022/03/27 06:00:21;;;;;;;5.25;2.60;;;3.40;99.90;;;;;;5131738;27;20039;-74
2022/03/27 06:02:50;;;;;;;5.78;2.50;;;3.30;99.90;;;;;;5125157;27;20039;-73
2022/03/27 06:05:22;;;;;;;9.02;2.53;;;3.40;99.90;;;;;;5131301;27;20038;-73
2022/03/27 06:07:49;;;;;;;6.20;3.22;;;3.30;99.90;;;;;;5131500;27;20531;-76
2022/03/27 06:10:19;;;;;;;11.40;4.05;;;3.40;99.90;;;;;;5131584;27;20055;-78
2022/03/27 06:12:45;;;;;;;6.35;3.40;;;3.40;99.90;;;;;;5122926;27;20046;-76
2022/03/27 06:15:12;;;;;;;9.00;4.57;;;3.40;99.90;;;;;;5110894;28;20096;-78
2022/03/27 06:17:43;;;;;;;18.98;6.72;;;3.40;99.90;;;;;;5111402;27;20139;-76
2022/03/27 06:20:23;;;;;;;42.28;4.63;;;3.50;99.90;;;;;;5110472;28;20065;-76
2022/03/27 06:22:49;;;;;;;11.95;4.28;;;3.40;99.90;;;;;;5112072;28;20048;-80
2022/03/27 06:25:17;;;;;;;29.58;3.85;;;3.50;99.90;;;;;;5110665;28;20047;-74
2022/03/27 06:27:43;;;;;;;5.70;3.00;;;3.50;99.90;;;;;;5118221;27;20047;-79
2022/03/27 06:30:12;;;;;;;9.40;4.28;;;3.60;99.90;;;;;;5131299;27;20047;-75
2022/03/27 06:32:38;;;;;;;10.23;4.47;;;3.60;99.90;;;;;;5127667;27;20058;-78
2022/03/27 06:35:07;;;;;;;7.45;4.25;;;3.60;99.90;;;;;;5111422;27;20054;-78
2022/03/27 06:37:33;;;;;;;7.28;4.32;;;3.70;99.90;;;;;;5110238;28;20054;-76
2022/03/27 06:40:00;;;;;;;8.20;4.15;;;3.70;99.90;;;;;;5114330;27;20035;-75
2022/03/27 06:42:26;;;;;;;7.38;4.30;;;3.80;99.90;;;;;;5125872;27;20383;-79
2022/03/27 06:44:54;;;;;;;7.70;3.85;;;3.90;99.90;;;;;;5130753;27;20039;-79
2022/03/27 06:47:21;;;;;;;9.70;3.60;;;3.90;99.90;;;;;;5124638;27;20093;-78
2022/03/27 06:49:48;;;;;;;8.77;3.47;;;4.00;99.90;;;;;;5110345;28;20047;-76
2022/03/27 06:52:14;;;;;;;15.48;3.60;;;4.50;99.90;;;;;;5108761;28;20047;-78
2022/03/27 06:54:40;;;;;;;18.98;4.13;;;4.20;99.90;;;;;;5110182;28;20130;-76
2022/03/27 06:57:06;;;;;;;25.45;6.20;;;4.30;99.90;;;;;;5128444;27;20118;-77
2022/03/27 07:03:01;;;;;;;39.15;6.18;;;4.50;99.90;;;;;;5127757;27;20047;-79
2022/03/27 07:05:03;;;;;;;48.92;7.22;;;4.70;99.90;;;;;;5130708;27;20043;-73
2022/03/27 07:07:29;;;;;;;39.35;6.35;;;4.80;99.90;;;;;;5129863;27;20077;-74
2022/03/27 07:09:57;;;;;;;30.85;5.70;;;4.90;99.90;;;;;;5130523;27;20070;-76
2022/03/27 07:12:24;;;;;;;39.42;6.55;;;5.00;99.90;;;;;;5117371;28;20055;-77
2022/03/27 07:14:50;;;;;;;35.00;6.45;;;5.10;99.90;;;;;;5109987;28;20063;-73
2022/03/27 07:17:17;;;;;;;42.08;7.32;;;5.20;99.90;;;;;;5109841;28;20593;-79
2022/03/27 07:19:47;;;;;;;33.97;6.60;;;5.30;99.90;;;;;;5109815;28;20867;-78
2022/03/27 07:22:14;;;;;;;37.63;5.97;;;5.40;99.90;;;;;;5110914;28;20455;-77
2022/03/27 07:24:41;;;;;;;52.58;8.00;;;5.50;99.90;;;;;;5116388;28;20094;-78
2022/03/27 07:27:08;;;;;;;42.10;6.03;;;5.70;99.90;;;;;;5129169;28;20051;-78
2022/03/27 07:29:35;;;;;;;35.60;6.38;;;5.70;99.90;;;;;;5130621;28;20044;-79
2022/03/27 07:32:01;;;;;;;38.05;6.57;;;5.80;99.90;;;;;;5130369;28;20051;-79
2022/03/27 07:34:27;;;;;;;38.22;6.97;;;6.00;99.90;;;;;;5111225;28;20457;-75
2022/03/27 07:36:53;;;;;;;45.10;7.55;;;6.10;99.90;;;;;;5110177;28;20152;-74
2022/03/27 07:39:18;;;;;;;52.95;6.90;;;6.20;99.90;;;;;;5109830;28;20123;-78
2022/03/27 07:41:44;;;;;;;55.03;9.60;;;6.30;99.90;;;;;;5110403;28;20371;-79
2022/03/27 07:44:10;;;;;;;48.85;7.80;;;6.50;99.90;;;;;;5109658;28;20122;-79
2022/03/27 07:46:35;;;;;;;52.20;7.35;;;6.60;99.90;;;;;;5110237;28;20105;-74
2022/03/27 07:49:02;;;;;;;59.00;7.82;;;6.70;99.90;;;;;;5109960;28;20457;-78
2022/03/27 07:51:27;;;;;;;40.42;7.68;;;6.80;99.90;;;;;;5109726;28;20502;-77
2022/03/27 07:53:53;;;;;;;49.85;7.35;;;6.90;99.90;;;;;;5109031;28;20083;-78
2022/03/27 07:56:19;;;;;;;44.70;7.40;;;7.00;99.90;;;;;;5108447;28;20410;-74
2022/03/27 07:58:46;;;;;;;47.40;8.93;;;7.40;99.90;;;;;;5129906;28;20521;-75
2022/03/27 08:01:14;;;;;;;55.05;7.55;;;7.30;99.90;;;;;;5130255;27;20044;-79
2022/03/27 08:03:41;;;;;;;47.42;7.45;;;7.40;99.90;;;;;;5129558;27;20043;-77
2022/03/27 08:06:07;;;;;;;45.15;9.20;;;7.50;99.90;;;;;;5127092;28;20039;-79
2022/03/27 08:08:34;;;;;;;58.33;8.25;;;7.60;99.90;;;;;;5129915;27;20058;-77
2022/03/27 08:11:00;;;;;;;65.28;9.25;;;7.70;99.90;;;;;;5132551;27;20047;-77
2022/03/27 08:13:26;;;;;;;44.42;8.23;;;7.80;99.90;;;;;;5134050;27;20126;-79
2022/03/27 08:15:52;;;;;;;44.63;8.13;;;7.90;99.90;;;;;;5132345;27;20078;-74
2022/03/27 08:18:18;;;;;;;48.83;8.23;;;8.10;99.90;;;;;;5133685;27;20047;-76
2022/03/27 08:20:44;;;;;;;47.75;8.35;;;8.20;99.90;;;;;;5133913;27;20039;-78
2022/03/27 08:23:10;;;;;;;56.92;9.57;;;8.40;99.90;;;;;;5133749;27;20447;-77
2022/03/27 08:28:21;;;;;;;39.65;8.25;;;8.70;99.90;;;;;;5133498;27;20051;-75
2022/03/27 08:30:48;;;;;;;43.97;7.60;;;8.90;99.90;;;;;;5133515;27;20452;-73
2022/03/27 08:33:15;;;;;;;44.95;8.10;;;9.10;99.90;;;;;;5128863;27;20414;-77
2022/03/27 08:35:42;;;;;;;46.85;7.53;;;9.20;99.90;;;;;;5133334;27;20063;-72
2022/03/27 08:38:12;;;;;;;52.58;8.65;;;9.30;99.90;;;;;;5129350;27;20042;-76
2022/03/27 08:40:45;;;;;;;40.90;7.45;;;9.50;99.90;;;;;;5112707;28;20380;-75
2022/03/27 08:43:13;;;;;;;38.10;7.13;;;9.70;99.90;;;;;;5111760;27;20054;-75
2022/03/27 08:45:40;;;;;;;41.72;7.60;;;10.00;99.90;;;;;;5114032;27;20470;-79
2022/03/27 08:48:06;;;;;;;46.67;8.55;;;10.10;99.90;;;;;;5133128;27;20504;-75
2022/03/27 08:50:34;;;;;;;37.78;6.72;;;10.40;99.90;;;;;;5132970;27;20046;-75
2022/03/27 08:53:06;;;;;;;35.35;7.93;;;10.50;99.90;;;;;;5129526;27;20656;-76
2022/03/27 08:55:49;;;;;;;35.13;6.90;;;11.40;99.90;;;;;;5133032;27;20093;-77
2022/03/27 08:58:15;;;;;;;51.45;7.45;;;10.80;99.90;;;;;;5133002;27;20065;-77
2022/03/27 09:00:41;;;;;;;36.83;6.90;;;11.30;99.90;;;;;;5132760;27;20047;-75
2022/03/27 09:03:08;;;;;;;28.30;6.88;;;11.30;99.90;;;;;;5130998;27;20031;-76
2022/03/27 09:05:37;;;;;;;33.38;6.43;;;11.40;99.90;;;;;;5133008;27;20043;-78
2022/03/27 09:08:09;;;;;;;32.38;6.25;;;12.30;99.90;;;;;;5132531;27;20065;-78
2022/03/27 09:10:36;;;;;;;35.40;6.68;;;11.70;99.90;;;;;;5131316;27;20066;-78
2022/03/27 09:13:02;;;;;;;29.63;6.93;;;11.90;99.90;;;;;;5122789;27;20043;-77
2022/03/27 09:15:28;;;;;;;36.47;6.50;;;12.20;99.90;;;;;;5112160;28;20328;-76
2022/03/27 09:18:01;;;;;;;34.53;6.20;;;12.40;99.90;;;;;;5111836;28;20039;-79
2022/03/27 09:20:53;;;;;;;34.13;6.53;;;12.60;99.90;;;;;;5111644;28;20058;-77
2022/03/27 09:23:22;;;;;;;35.78;6.55;;;12.80;99.90;;;;;;5128109;27;20055;-78
2022/03/27 09:25:48;;;;;;;36.28;6.95;;;13.00;99.90;;;;;;5132439;27;20452;-77
2022/03/27 09:28:35;;;;;;;41.58;6.82;;;13.20;99.90;;;;;;5129994;27;20101;-76
2022/03/27 09:31:28;;;;;;;32.35;6.35;;;13.30;99.90;;;;;;5116765;27;20508;-75
2022/03/27 09:33:56;;;;;;;37.90;6.70;;;13.40;99.90;;;;;;5110574;28;20051;-74
2022/03/27 09:36:23;;;;;;;30.30;5.53;;;13.60;99.90;;;;;;5111536;28;20101;-75
2022/03/27 09:39:07;;;;;;;35.10;6.15;;;13.70;99.90;;;;;;5111682;28;20083;-75
2022/03/27 09:41:35;;;;;;;30.60;5.77;;;14.10;99.90;;;;;;5111564;28;20479;-74
2022/03/27 09:44:07;;;;;;;33.28;6.43;;;14.20;99.90;;;;;;5127814;27;20129;-75
2022/03/27 09:46:51;;;;;;;37.40;7.28;;;14.20;99.90;;;;;;5131996;27;20569;-73
2022/03/27 09:49:22;;;;;;;26.63;5.67;;;14.40;99.90;;;;;;5131883;27;20405;-75
2022/03/27 09:51:51;;;;;;;32.45;6.30;;;14.40;99.90;;;;;;5131992;27;20498;-74
2022/03/27 09:54:17;;;;;;;39.42;6.45;;;14.50;99.90;;;;;;5117952;27;20512;-75
2022/03/27 09:56:43;;;;;;;39.50;7.47;;;14.70;99.90;;;;;;5111459;28;20119;-75
2022/03/27 09:59:27;;;;;;;31.15;6.68;;;14.90;99.90;;;;;;5110114;28;20135;-74
2022/03/27 10:01:53;;;;;;;34.30;7.15;;;14.80;99.90;;;;;;5112382;27;20498;-75
2022/03/27 10:04:20;;;;;;;29.15;6.03;;;15.00;99.90;;;;;;5111513;28;20043;-74
2022/03/27 10:06:45;;;;;;;37.75;6.15;;;15.20;99.90;;;;;;5111673;28;20082;-77
2022/03/27 10:09:14;;;;;;;37.08;6.38;;;15.10;99.90;;;;;;5111289;28;20087;-75
2022/03/27 10:11:42;;;;;;;36.72;6.55;;;15.30;99.90;;;;;;5112699;27;20039;-76
2022/03/27 10:14:09;;;;;;;26.73;5.82;;;15.60;99.90;;;;;;5111085;28;20039;-79
2022/03/27 10:16:37;;;;;;;28.15;5.85;;;15.70;99.90;;;;;;5111223;28;20054;-75
2022/03/27 10:19:05;;;;;;;29.08;5.93;;;15.80;99.90;;;;;;5111049;28;20135;-75
2022/03/27 10:21:33;;;;;;;36.92;6.32;;;15.90;99.90;;;;;;5112228;27;20094;-74
2022/03/27 10:24:11;;;;;;;25.60;5.78;;;16.10;99.90;;;;;;5131665;27;20094;-76
2022/03/27 10:26:38;;;;;;;34.67;6.25;;;16.20;99.90;;;;;;5131662;27;20154;-82
2022/03/27 10:29:05;;;;;;;31.23;6.13;;;16.20;99.90;;;;;;5131191;27;20047;-79
2022/03/27 10:31:31;;;;;;;24.77;4.70;;;16.20;99.90;;;;;;5131405;27;20043;-76
2022/03/27 10:34:00;;;;;;;27.52;5.03;;;16.10;99.90;;;;;;5112417;27;20040;-76
2022/03/27 10:36:56;;;;;;;22.45;4.65;;;16.00;99.90;;;;;;5093454;28;20046;-79
2022/03/27 10:39:22;;;;;;;;;;;16.00;98.00;;;;;;5111436;28;20184;-76
2022/03/27 10:42:27;;;;;;;28.35;5.25;;;16.00;98.50;;;;;;5092524;28;19923;-80
2022/03/27 10:45:22;;;;;;;26.23;5.25;;;16.40;99.60;;;;;;5108988;28;20459;-75
2022/03/27 10:48:10;;;;;;;30.95;5.85;;;16.40;98.70;;;;;;5007830;28;20236;-76
2022/03/27 10:50:54;;;;;;;27.08;5.32;;;16.60;98.20;;;;;;5007767;28;20168;-76
2022/03/27 10:53:25;;;;;;;26.52;5.45;;;16.80;98.80;;;;;;5007742;28;20046;-78
2022/03/27 10:55:52;;;;;;;25.50;4.60;;;16.90;99.50;;;;;;5007672;28;20046;-79
2022/03/27 10:58:31;;;;;;;29.15;5.20;;;17.10;99.20;;;;;;5007584;28;20433;-79
2022/03/27 11:00:59;;;;;;;25.88;5.47;;;17.30;98.40;;;;;;5006908;28;20050;-80
2022/03/27 11:03:46;;;;;;;21.00;5.05;;;17.40;98.80;;;;;;5007515;28;20042;-79
2022/03/27 11:06:32;;;;;;;22.85;4.88;;;17.60;96.10;;;;;;4998338;28;20060;-77
2022/03/27 11:09:02;;;;;;;25.95;4.80;;;17.70;95.60;;;;;;5007692;28;20066;-79
2022/03/27 11:11:43;;;;;;;22.58;4.63;;;17.70;97.40;;;;;;5007412;28;20448;-77
2022/03/27 11:14:10;;;;;;;21.65;4.55;;;18.10;96.90;;;;;;5007623;28;20563;-77
2022/03/27 11:17:03;;;;;;;23.30;4.97;;;18.00;97.20;;;;;;5026637;28;20045;-76
2022/03/27 11:19:46;;;;;;;26.75;5.45;;;18.00;94.00;;;;;;5007782;28;20215;-75
2022/03/27 11:23:04;;;;;;;22.25;4.90;;;18.30;93.80;;;;;;5047203;28;20052;-80
2022/03/27 11:25:36;;;;;;;22.83;4.80;;;18.40;92.10;;;;;;5066369;28;20066;-75
2022/03/27 11:28:11;;;;;;;23.52;5.05;;;18.50;94.30;;;;;;5063368;28;20056;-78
2022/03/27 11:30:40;;;;;;;23.10;4.68;;;18.60;92.00;;;;;;5048507;28;20049;-80
2022/03/27 11:33:12;;;;;;;22.67;5.28;;;18.50;91.60;;;;;;5046421;28;20199;-76
2022/03/27 11:35:40;;;;;;;21.88;4.63;;;18.80;85.80;;;;;;5046671;28;20045;-76
2022/03/27 11:38:19;;;;;;;22.50;5.03;;;18.60;86.30;;;;;;5048165;28;20060;-78
2022/03/27 11:40:45;;;;;;;20.15;4.13;;;18.70;86.40;;;;;;5055524;28;20504;-79
2022/03/27 11:43:34;;;;;;;17.27;3.38;;;18.80;85.30;;;;;;5051823;28;20053;-75
2022/03/27 11:46:02;;;;;;;17.17;4.13;;;18.80;77.50;;;;;;5037933;28;20452;-79
2022/03/27 11:48:28;;;;;;;17.45;5.03;;;18.70;81.10;;;;;;5050172;28;20056;-75
2022/03/27 11:50:55;;;;;;;17.23;3.50;;;19.00;83.40;;;;;;5050415;28;20060;-82
2022/03/27 11:53:34;;;;;;;19.27;4.65;;;18.80;77.90;;;;;;5050353;28;20045;-77
2022/03/27 11:56:11;;;;;;;14.55;3.45;;;18.80;79.00;;;;;;5051550;28;20076;-77
2022/03/27 11:58:38;;;;;;;16.95;3.80;;;18.90;74.80;;;;;;5050471;28;20092;-80
2022/03/27 12:01:11;;;;;;;15.30;3.55;;;19.10;77.50;;;;;;5081603;28;20056;-77
2022/03/27 12:03:37;;;;;;;16.10;4.07;;;19.10;74.50;;;;;;5125543;27;20047;-76
2022/03/27 12:06:09;;;;;;;13.75;2.95;;;19.60;75.30;;;;;;5113336;28;20394;-77
2022/03/27 12:08:36;;;;;;;16.30;3.92;;;19.40;72.90;;;;;;5113210;28;20525;-78
2022/03/27 12:11:06;;;;;;;16.52;3.53;;;19.60;72.00;;;;;;5116408;27;20651;-79
2022/03/27 12:13:36;;;;;;;14.05;2.47;;;19.70;73.20;;;;;;5133429;27;20497;-78
2022/03/27 12:16:01;;;;;;;15.98;3.20;;;19.90;68.50;;;;;;5133738;27;20133;-79
2022/03/27 12:18:32;;;;;;;12.93;2.88;;;19.90;65.40;;;;;;5133393;27;20175;-78
2022/03/27 12:21:03;;;;;;;12.45;2.97;;;20.00;70.30;;;;;;5134145;27;20050;-80
2022/03/27 12:23:31;;;;;;;17.67;3.95;;;20.00;69.90;;;;;;5133421;27;20039;-80
2022/03/27 12:26:04;;;;;;;18.55;3.13;;;20.10;69.20;;;;;;5133701;27;20153;-77
2022/03/27 12:31:33;;;;;;;14.40;3.65;;;20.10;68.00;;;;;;5133305;27;20104;-78
2022/03/27 12:33:59;;;;;;;16.85;3.80;;;20.30;65.10;;;;;;5133129;27;20043;-81
2022/03/27 12:36:25;;;;;;;16.30;2.67;;;20.40;67.80;;;;;;5133651;27;20046;-79
2022/03/27 12:38:50;;;;;;;12.55;2.85;;;20.10;66.30;;;;;;5133827;27;20426;-81
2022/03/27 12:41:39;;;;;;;16.30;3.33;;;20.40;67.10;;;;;;5133626;27;20035;-80
2022/03/27 12:44:05;;;;;;;13.98;3.58;;;20.50;66.70;;;;;;5133694;27;20108;-79
2022/03/27 12:46:31;;;;;;;17.35;3.50;;;20.60;67.60;;;;;;5114970;27;20457;-77
2022/03/27 12:49:05;;;;;;;10.20;2.38;;;20.60;66.30;;;;;;5133372;27;20426;-79
2022/03/27 12:51:31;;;;;;;12.02;3.17;;;20.70;65.60;;;;;;5132913;27;20512;-78
2022/03/27 12:54:08;;;;;;;21.42;3.63;;;20.60;65.60;;;;;;5133049;27;20041;-78
2022/03/27 12:56:35;;;;;;;12.23;3.25;;;20.30;64.70;;;;;;5132323;27;20097;-79
2022/03/27 12:59:20;;;;;;;11.88;3.17;;;20.60;65.10;;;;;;5133244;27;20131;-80
2022/03/27 13:01:46;;;;;;;15.60;2.70;;;20.50;63.50;;;;;;5133156;27;20062;-80
2022/03/27 13:04:13;;;;;;;11.77;3.00;;;20.70;65.20;;;;;;5114759;27;20478;-78